sensor_id;sensor_type;location;lat;lon;timestamp;P1;durP1;ratioP1;P2;durP2;ratioP2
70157;SDS011;57524;48.312;7.938;2022-07-30T00:00:45;5.38;;;2.55;;
70157;SDS011;57524;48.312;7.938;2022-07-30T00:03:15;4.80;;;2.63;;
70157;SDS011;57524;48.312;7.938;2022-07-30T00:05:42;5.32;;;2.67;;
70157;SDS011;57524;48.312;7.938;2022-07-30T00:08:09;6.20;;;3.10;;
70157;SDS011;57524;48.312;7.938;2022-07-30T00:10:35;5.97;;;2.90;;
70157;SDS011;57524;48.312;7.938;2022-07-30T00:13:03;5.90;;;3.00;;
70157;SDS011;57524;48.312;7.938;2022-07-30T00:15:30;6.70;;;3.50;;
70157;SDS011;57524;48.312;7.938;2022-07-30T00:17:58;6.63;;;3.63;;
70157;SDS011;57524;48.312;7.938;2022-07-30T00:20:24;9.75;;;4.13;;
70157;SDS011;57524;48.312;7.938;2022-07-30T00:22:51;6.88;;;3.97;;
70157;SDS011;57524;48.312;7.938;2022-07-30T00:25:18;7.88;;;4.40;;
70157;SDS011;57524;48.312;7.938;2022-07-30T00:27:44;8.60;;;4.50;;
70157;SDS011;57524;48.312;7.938;2022-07-30T00:30:11;8.88;;;4.95;;
70157;SDS011;57524;48.312;7.938;2022-07-30T00:32:38;8.75;;;4.78;;
70157;SDS011;57524;48.312;7.938;2022-07-30T00:35:09;7.57;;;4.25;;
70157;SDS011;57524;48.312;7.938;2022-07-30T00:37:36;7.70;;;4.35;;
70157;SDS011;57524;48.312;7.938;2022-07-30T00:40:03;7.30;;;4.00;;
70157;SDS011;57524;48.312;7.938;2022-07-30T00:42:37;6.95;;;3.90;;
70157;SDS011;57524;48.312;7.938;2022-07-30T00:45:05;6.25;;;3.40;;
70157;SDS011;57524;48.312;7.938;2022-07-30T00:47:32;6.38;;;3.33;;
70157;SDS011;57524;48.312;7.938;2022-07-30T00:50:00;5.95;;;3.60;;
70157;SDS011;57524;48.312;7.938;2022-07-30T00:52:30;7.45;;;3.90;;
70157;SDS011;57524;48.312;7.938;2022-07-30T00:54:57;7.30;;;4.07;;
70157;SDS011;57524;48.312;7.938;2022-07-30T00:57:23;6.57;;;4.00;;
70157;SDS011;57524;48.312;7.938;2022-07-30T00:59:50;7.05;;;4.18;;
70157;SDS011;57524;48.312;7.938;2022-07-30T01:02:17;7.15;;;4.22;;
70157;SDS011;57524;48.312;7.938;2022-07-30T01:04:43;7.00;;;4.07;;
70157;SDS011;57524;48.312;7.938;2022-07-30T01:07:10;6.47;;;3.55;;
70157;SDS011;57524;48.312;7.938;2022-07-30T01:09:38;7.63;;;3.80;;
70157;SDS011;57524;48.312;7.938;2022-07-30T01:12:05;7.10;;;3.63;;
70157;SDS011;57524;48.312;7.938;2022-07-30T01:14:34;7.75;;;3.90;;
70157;SDS011;57524;48.312;7.938;2022-07-30T01:17:02;6.80;;;3.47;;
70157;SDS011;57524;48.312;7.938;2022-07-30T01:19:32;6.80;;;3.53;;
70157;SDS011;57524;48.312;7.938;2022-07-30T01:22:16;7.20;;;3.60;;
70157;SDS011;57524;48.312;7.938;2022-07-30T01:25:03;6.00;;;3.38;;
70157;SDS011;57524;48.312;7.938;2022-07-30T01:27:35;6.45;;;3.40;;
70157;SDS011;57524;48.312;7.938;2022-07-30T01:30:06;5.75;;;3.15;;
70157;SDS011;57524;48.312;7.938;2022-07-30T01:32:33;5.72;;;3.40;;
70157;SDS011;57524;48.312;7.938;2022-07-30T01:35:04;7.30;;;3.30;;
70157;SDS011;57524;48.312;7.938;2022-07-30T01:37:34;5.55;;;3.25;;
70157;SDS011;57524;48.312;7.938;2022-07-30T01:40:02;5.53;;;3.10;;
70157;SDS011;57524;48.312;7.938;2022-07-30T01:42:31;5.65;;;3.67;;
70157;SDS011;57524;48.312;7.938;2022-07-30T01:45:01;5.35;;;3.33;;
70157;SDS011;57524;48.312;7.938;2022-07-30T01:47:29;6.43;;;3.60;;
70157;SDS011;57524;48.312;7.938;2022-07-30T01:49:59;5.90;;;3.50;;
70157;SDS011;57524;48.312;7.938;2022-07-30T01:52:28;6.20;;;3.80;;
70157;SDS011;57524;48.312;7.938;2022-07-30T01:54:58;5.70;;;3.20;;
70157;SDS011;57524;48.312;7.938;2022-07-30T01:57:27;6.15;;;3.55;;
70157;SDS011;57524;48.312;7.938;2022-07-30T01:59:56;6.10;;;3.40;;
70157;SDS011;57524;48.312;7.938;2022-07-30T02:02:31;6.50;;;3.88;;
70157;SDS011;57524;48.312;7.938;2022-07-30T02:05:00;5.47;;;3.35;;
70157;SDS011;57524;48.312;7.938;2022-07-30T02:07:29;7.07;;;3.70;;
70157;SDS011;57524;48.312;7.938;2022-07-30T02:10:03;6.03;;;3.35;;
70157;SDS011;57524;48.312;7.938;2022-07-30T02:12:40;5.63;;;3.58;;
70157;SDS011;57524;48.312;7.938;2022-07-30T02:15:13;6.82;;;4.20;;
70157;SDS011;57524;48.312;7.938;2022-07-30T02:17:49;7.00;;;4.15;;
70157;SDS011;57524;48.312;7.938;2022-07-30T02:20:20;5.65;;;3.75;;
70157;SDS011;57524;48.312;7.938;2022-07-30T02:22:50;5.95;;;4.10;;
70157;SDS011;57524;48.312;7.938;2022-07-30T02:25:22;7.05;;;4.05;;
70157;SDS011;57524;48.312;7.938;2022-07-30T02:27:51;8.48;;;4.57;;
70157;SDS011;57524;48.312;7.938;2022-07-30T02:30:22;7.85;;;4.35;;
70157;SDS011;57524;48.312;7.938;2022-07-30T02:32:54;6.85;;;4.53;;
70157;SDS011;57524;48.312;7.938;2022-07-30T02:35:27;9.05;;;4.13;;
70157;SDS011;57524;48.312;7.938;2022-07-30T02:37:55;7.43;;;4.53;;
70157;SDS011;57524;48.312;7.938;2022-07-30T02:40:25;7.18;;;4.43;;
70157;SDS011;57524;48.312;7.938;2022-07-30T02:42:52;7.38;;;4.60;;
70157;SDS011;57524;48.312;7.938;2022-07-30T02:45:23;7.07;;;4.47;;
70157;SDS011;57524;48.312;7.938;2022-07-30T02:47:52;7.50;;;4.50;;
70157;SDS011;57524;48.312;7.938;2022-07-30T02:50:22;7.35;;;4.47;;
70157;SDS011;57524;48.312;7.938;2022-07-30T02:52:50;6.97;;;4.40;;
70157;SDS011;57524;48.312;7.938;2022-07-30T02:55:18;8.77;;;4.32;;
70157;SDS011;57524;48.312;7.938;2022-07-30T02:57:46;6.30;;;4.30;;
70157;SDS011;57524;48.312;7.938;2022-07-30T03:00:15;5.78;;;4.20;;
70157;SDS011;57524;48.312;7.938;2022-07-30T03:02:42;6.90;;;4.15;;
70157;SDS011;57524;48.312;7.938;2022-07-30T03:05:12;7.20;;;4.15;;
70157;SDS011;57524;48.312;7.938;2022-07-30T03:07:40;6.60;;;4.30;;
70157;SDS011;57524;48.312;7.938;2022-07-30T03:10:09;5.63;;;4.20;;
70157;SDS011;57524;48.312;7.938;2022-07-30T03:12:37;7.07;;;4.28;;
70157;SDS011;57524;48.312;7.938;2022-07-30T03:15:07;6.22;;;4.30;;
70157;SDS011;57524;48.312;7.938;2022-07-30T03:17:36;8.65;;;4.68;;
70157;SDS011;57524;48.312;7.938;2022-07-30T03:20:06;6.70;;;4.55;;
70157;SDS011;57524;48.312;7.938;2022-07-30T03:22:38;7.63;;;4.70;;
70157;SDS011;57524;48.312;7.938;2022-07-30T03:25:07;6.82;;;4.68;;
70157;SDS011;57524;48.312;7.938;2022-07-30T03:27:37;7.63;;;4.80;;
70157;SDS011;57524;48.312;7.938;2022-07-30T03:30:05;7.93;;;5.05;;
70157;SDS011;57524;48.312;7.938;2022-07-30T03:32:33;9.57;;;5.47;;
70157;SDS011;57524;48.312;7.938;2022-07-30T03:35:01;8.30;;;5.22;;
70157;SDS011;57524;48.312;7.938;2022-07-30T03:37:29;8.20;;;4.90;;
70157;SDS011;57524;48.312;7.938;2022-07-30T03:39:58;7.88;;;4.90;;
70157;SDS011;57524;48.312;7.938;2022-07-30T03:42:25;8.32;;;5.43;;
70157;SDS011;57524;48.312;7.938;2022-07-30T03:44:53;7.78;;;5.10;;
70157;SDS011;57524;48.312;7.938;2022-07-30T03:47:22;7.40;;;4.95;;
70157;SDS011;57524;48.312;7.938;2022-07-30T03:49:50;8.27;;;5.57;;
70157;SDS011;57524;48.312;7.938;2022-07-30T03:52:17;9.48;;;5.93;;
70157;SDS011;57524;48.312;7.938;2022-07-30T03:54:45;7.90;;;5.18;;
70157;SDS011;57524;48.312;7.938;2022-07-30T03:57:33;9.57;;;5.85;;
70157;SDS011;57524;48.312;7.938;2022-07-30T04:00:00;7.95;;;5.60;;
70157;SDS011;57524;48.312;7.938;2022-07-30T04:02:41;8.90;;;5.97;;
70157;SDS011;57524;48.312;7.938;2022-07-30T04:05:17;8.88;;;6.03;;
70157;SDS011;57524;48.312;7.938;2022-07-30T04:07:45;11.73;;;6.50;;
70157;SDS011;57524;48.312;7.938;2022-07-30T04:10:14;10.05;;;6.40;;
70157;SDS011;57524;48.312;7.938;2022-07-30T04:13:08;10.68;;;6.55;;
70157;SDS011;57524;48.312;7.938;2022-07-30T04:15:36;8.30;;;5.80;;
70157;SDS011;57524;48.312;7.938;2022-07-30T04:18:10;8.05;;;5.80;;
70157;SDS011;57524;48.312;7.938;2022-07-30T04:20:42;10.48;;;5.82;;
70157;SDS011;57524;48.312;7.938;2022-07-30T04:23:11;8.30;;;5.40;;
70157;SDS011;57524;48.312;7.938;2022-07-30T04:25:42;9.65;;;5.78;;
70157;SDS011;57524;48.312;7.938;2022-07-30T04:28:10;7.10;;;5.47;;
70157;SDS011;57524;48.312;7.938;2022-07-30T04:30:39;7.00;;;5.25;;
70157;SDS011;57524;48.312;7.938;2022-07-30T04:33:06;8.48;;;5.50;;
70157;SDS011;57524;48.312;7.938;2022-07-30T04:35:39;8.60;;;5.38;;
70157;SDS011;57524;48.312;7.938;2022-07-30T04:38:11;8.57;;;5.57;;
70157;SDS011;57524;48.312;7.938;2022-07-30T04:40:40;8.77;;;5.63;;
70157;SDS011;57524;48.312;7.938;2022-07-30T04:43:07;8.77;;;5.25;;
70157;SDS011;57524;48.312;7.938;2022-07-30T04:45:39;8.00;;;5.45;;
70157;SDS011;57524;48.312;7.938;2022-07-30T04:48:07;7.20;;;5.38;;
70157;SDS011;57524;48.312;7.938;2022-07-30T04:50:34;8.32;;;5.30;;
70157;SDS011;57524;48.312;7.938;2022-07-30T04:53:06;9.35;;;5.70;;
70157;SDS011;57524;48.312;7.938;2022-07-30T04:55:36;9.30;;;5.60;;
70157;SDS011;57524;48.312;7.938;2022-07-30T04:58:08;7.50;;;5.25;;
70157;SDS011;57524;48.312;7.938;2022-07-30T05:00:38;10.10;;;5.70;;
70157;SDS011;57524;48.312;7.938;2022-07-30T05:03:12;7.35;;;5.20;;
70157;SDS011;57524;48.312;7.938;2022-07-30T05:05:44;8.82;;;5.30;;
70157;SDS011;57524;48.312;7.938;2022-07-30T05:08:12;8.35;;;5.18;;
70157;SDS011;57524;48.312;7.938;2022-07-30T05:10:39;6.60;;;5.05;;
70157;SDS011;57524;48.312;7.938;2022-07-30T05:13:09;7.45;;;4.93;;
70157;SDS011;57524;48.312;7.938;2022-07-30T05:15:36;7.78;;;5.40;;
70157;SDS011;57524;48.312;7.938;2022-07-30T05:18:07;7.32;;;5.15;;
70157;SDS011;57524;48.312;7.938;2022-07-30T05:20:37;8.95;;;5.00;;
70157;SDS011;57524;48.312;7.938;2022-07-30T05:23:14;10.23;;;5.43;;
70157;SDS011;57524;48.312;7.938;2022-07-30T05:25:47;7.78;;;5.40;;
70157;SDS011;57524;48.312;7.938;2022-07-30T05:28:25;9.43;;;5.40;;
70157;SDS011;57524;48.312;7.938;2022-07-30T05:30:52;8.02;;;5.10;;
70157;SDS011;57524;48.312;7.938;2022-07-30T05:33:20;8.60;;;5.43;;
70157;SDS011;57524;48.312;7.938;2022-07-30T05:35:47;7.95;;;5.70;;
70157;SDS011;57524;48.312;7.938;2022-07-30T05:38:15;7.97;;;5.78;;
70157;SDS011;57524;48.312;7.938;2022-07-30T05:41:11;8.15;;;5.53;;
70157;SDS011;57524;48.312;7.938;2022-07-30T05:44:00;7.15;;;4.70;;
70157;SDS011;57524;48.312;7.938;2022-07-30T05:46:26;7.93;;;5.68;;
70157;SDS011;57524;48.312;7.938;2022-07-30T05:48:56;7.15;;;5.40;;
70157;SDS011;57524;48.312;7.938;2022-07-30T05:51:23;9.52;;;5.55;;
70157;SDS011;57524;48.312;7.938;2022-07-30T05:53:50;8.35;;;5.07;;
70157;SDS011;57524;48.312;7.938;2022-07-30T05:56:35;9.50;;;5.40;;
70157;SDS011;57524;48.312;7.938;2022-07-30T05:59:09;8.75;;;5.28;;
70157;SDS011;57524;48.312;7.938;2022-07-30T06:02:14;8.13;;;5.22;;
70157;SDS011;57524;48.312;7.938;2022-07-30T06:05:01;8.30;;;5.50;;
70157;SDS011;57524;48.312;7.938;2022-07-30T06:07:28;7.40;;;5.00;;
70157;SDS011;57524;48.312;7.938;2022-07-30T06:09:56;8.43;;;5.20;;
70157;SDS011;57524;48.312;7.938;2022-07-30T06:12:25;8.40;;;5.22;;
70157;SDS011;57524;48.312;7.938;2022-07-30T06:14:52;9.02;;;5.35;;
70157;SDS011;57524;48.312;7.938;2022-07-30T06:17:24;9.20;;;5.25;;
70157;SDS011;57524;48.312;7.938;2022-07-30T06:20:10;7.20;;;5.30;;
70157;SDS011;57524;48.312;7.938;2022-07-30T06:23:06;8.25;;;5.03;;
70157;SDS011;57524;48.312;7.938;2022-07-30T06:25:52;7.03;;;5.03;;
70157;SDS011;57524;48.312;7.938;2022-07-30T06:28:19;8.35;;;5.30;;
70157;SDS011;57524;48.312;7.938;2022-07-30T06:30:46;6.60;;;4.82;;
70157;SDS011;57524;48.312;7.938;2022-07-30T06:33:13;8.13;;;5.03;;
70157;SDS011;57524;48.312;7.938;2022-07-30T06:35:42;7.78;;;5.05;;
70157;SDS011;57524;48.312;7.938;2022-07-30T06:38:11;8.10;;;5.32;;
70157;SDS011;57524;48.312;7.938;2022-07-30T06:40:51;6.10;;;4.38;;
70157;SDS011;57524;48.312;7.938;2022-07-30T06:43:26;10.07;;;5.40;;
70157;SDS011;57524;48.312;7.938;2022-07-30T06:46:01;8.30;;;5.13;;
70157;SDS011;57524;48.312;7.938;2022-07-30T06:48:32;7.72;;;5.15;;
70157;SDS011;57524;48.312;7.938;2022-07-30T06:51:04;8.65;;;5.20;;
70157;SDS011;57524;48.312;7.938;2022-07-30T06:53:31;9.50;;;5.18;;
70157;SDS011;57524;48.312;7.938;2022-07-30T06:56:10;8.63;;;5.00;;
70157;SDS011;57524;48.312;7.938;2022-07-30T06:58:57;7.18;;;5.28;;
70157;SDS011;57524;48.312;7.938;2022-07-30T07:01:56;7.63;;;5.00;;
70157;SDS011;57524;48.312;7.938;2022-07-30T07:04:23;6.97;;;4.88;;
70157;SDS011;57524;48.312;7.938;2022-07-30T07:06:51;7.38;;;4.72;;
70157;SDS011;57524;48.312;7.938;2022-07-30T07:09:26;8.30;;;5.03;;
70157;SDS011;57524;48.312;7.938;2022-07-30T07:12:11;6.35;;;4.80;;
70157;SDS011;57524;48.312;7.938;2022-07-30T07:14:39;6.18;;;4.60;;
70157;SDS011;57524;48.312;7.938;2022-07-30T07:17:07;10.02;;;4.50;;
70157;SDS011;57524;48.312;7.938;2022-07-30T07:20:00;8.80;;;4.70;;
70157;SDS011;57524;48.312;7.938;2022-07-30T07:22:29;6.97;;;4.22;;
70157;SDS011;57524;48.312;7.938;2022-07-30T07:24:56;6.38;;;4.10;;
70157;SDS011;57524;48.312;7.938;2022-07-30T07:27:26;7.43;;;4.65;;
70157;SDS011;57524;48.312;7.938;2022-07-30T07:29:56;7.63;;;4.68;;
70157;SDS011;57524;48.312;7.938;2022-07-30T07:32:23;9.23;;;5.03;;
70157;SDS011;57524;48.312;7.938;2022-07-30T07:34:49;6.00;;;4.32;;
70157;SDS011;57524;48.312;7.938;2022-07-30T07:37:16;7.15;;;4.63;;
70157;SDS011;57524;48.312;7.938;2022-07-30T07:39:44;7.55;;;5.13;;
70157;SDS011;57524;48.312;7.938;2022-07-30T07:42:11;7.68;;;5.28;;
70157;SDS011;57524;48.312;7.938;2022-07-30T07:44:41;7.50;;;4.88;;
70157;SDS011;57524;48.312;7.938;2022-07-30T07:47:07;8.00;;;5.13;;
70157;SDS011;57524;48.312;7.938;2022-07-30T07:49:40;5.97;;;4.45;;
70157;SDS011;57524;48.312;7.938;2022-07-30T07:52:07;8.05;;;5.13;;
70157;SDS011;57524;48.312;7.938;2022-07-30T07:54:34;7.00;;;4.93;;
70157;SDS011;57524;48.312;7.938;2022-07-30T07:57:03;9.02;;;6.95;;
70157;SDS011;57524;48.312;7.938;2022-07-30T07:59:40;11.63;;;7.20;;
70157;SDS011;57524;48.312;7.938;2022-07-30T08:02:12;8.73;;;6.32;;
70157;SDS011;57524;48.312;7.938;2022-07-30T08:04:51;9.27;;;5.40;;
70157;SDS011;57524;48.312;7.938;2022-07-30T08:07:39;8.30;;;4.57;;
70157;SDS011;57524;48.312;7.938;2022-07-30T08:10:25;8.13;;;4.78;;
70157;SDS011;57524;48.312;7.938;2022-07-30T08:13:05;7.43;;;4.85;;
70157;SDS011;57524;48.312;7.938;2022-07-30T08:15:51;7.95;;;4.55;;
70157;SDS011;57524;48.312;7.938;2022-07-30T08:18:36;8.18;;;4.95;;
70157;SDS011;57524;48.312;7.938;2022-07-30T08:21:17;7.43;;;4.88;;
70157;SDS011;57524;48.312;7.938;2022-07-30T08:23:43;8.20;;;5.20;;
70157;SDS011;57524;48.312;7.938;2022-07-30T08:26:10;8.07;;;5.13;;
70157;SDS011;57524;48.312;7.938;2022-07-30T08:28:38;7.03;;;4.75;;
70157;SDS011;57524;48.312;7.938;2022-07-30T08:31:06;7.32;;;4.60;;
70157;SDS011;57524;48.312;7.938;2022-07-30T08:33:32;8.63;;;4.93;;
70157;SDS011;57524;48.312;7.938;2022-07-30T08:36:00;7.85;;;4.60;;
70157;SDS011;57524;48.312;7.938;2022-07-30T08:38:28;7.93;;;4.90;;
70157;SDS011;57524;48.312;7.938;2022-07-30T08:40:54;9.15;;;4.70;;
70157;SDS011;57524;48.312;7.938;2022-07-30T08:43:21;7.03;;;4.10;;
70157;SDS011;57524;48.312;7.938;2022-07-30T08:45:52;7.07;;;4.50;;
70157;SDS011;57524;48.312;7.938;2022-07-30T08:48:47;7.88;;;4.18;;
70157;SDS011;57524;48.312;7.938;2022-07-30T08:51:15;5.73;;;3.50;;
70157;SDS011;57524;48.312;7.938;2022-07-30T08:53:42;6.25;;;3.58;;
70157;SDS011;57524;48.312;7.938;2022-07-30T08:56:09;5.95;;;3.80;;
70157;SDS011;57524;48.312;7.938;2022-07-30T08:58:37;6.85;;;3.78;;
70157;SDS011;57524;48.312;7.938;2022-07-30T09:01:05;8.10;;;3.80;;
70157;SDS011;57524;48.312;7.938;2022-07-30T09:03:32;6.70;;;3.60;;
70157;SDS011;57524;48.312;7.938;2022-07-30T09:06:01;5.93;;;3.55;;
70157;SDS011;57524;48.312;7.938;2022-07-30T09:08:28;5.97;;;3.33;;
70157;SDS011;57524;48.312;7.938;2022-07-30T09:10:55;6.28;;;3.65;;
70157;SDS011;57524;48.312;7.938;2022-07-30T09:13:22;7.18;;;3.10;;
70157;SDS011;57524;48.312;7.938;2022-07-30T09:15:50;5.57;;;3.10;;
70157;SDS011;57524;48.312;7.938;2022-07-30T09:18:26;4.82;;;2.60;;
70157;SDS011;57524;48.312;7.938;2022-07-30T09:20:55;7.25;;;2.85;;
70157;SDS011;57524;48.312;7.938;2022-07-30T09:23:22;9.48;;;2.75;;
70157;SDS011;57524;48.312;7.938;2022-07-30T09:25:49;5.40;;;2.70;;
70157;SDS011;57524;48.312;7.938;2022-07-30T09:28:34;6.40;;;2.93;;
70157;SDS011;57524;48.312;7.938;2022-07-30T09:31:13;5.05;;;2.65;;
70157;SDS011;57524;48.312;7.938;2022-07-30T09:34:00;6.45;;;2.63;;
70157;SDS011;57524;48.312;7.938;2022-07-30T09:36:46;6.53;;;2.92;;
70157;SDS011;57524;48.312;7.938;2022-07-30T09:39:32;7.45;;;2.60;;
70157;SDS011;57524;48.312;7.938;2022-07-30T09:42:21;6.23;;;2.90;;
70157;SDS011;57524;48.312;7.938;2022-07-30T09:44:50;5.97;;;2.63;;
70157;SDS011;57524;48.312;7.938;2022-07-30T09:47:28;5.68;;;2.60;;
70157;SDS011;57524;48.312;7.938;2022-07-30T09:50:02;6.90;;;2.60;;
70157;SDS011;57524;48.312;7.938;2022-07-30T09:52:30;4.43;;;2.20;;
70157;SDS011;57524;48.312;7.938;2022-07-30T09:54:57;5.20;;;2.10;;
70157;SDS011;57524;48.312;7.938;2022-07-30T09:57:27;5.43;;;2.58;;
70157;SDS011;57524;48.312;7.938;2022-07-30T10:00:07;6.00;;;2.72;;
70157;SDS011;57524;48.312;7.938;2022-07-30T10:02:46;5.85;;;2.80;;
70157;SDS011;57524;48.312;7.938;2022-07-30T10:05:34;6.15;;;2.78;;
70157;SDS011;57524;48.312;7.938;2022-07-30T10:08:01;6.37;;;2.70;;
70157;SDS011;57524;48.312;7.938;2022-07-30T10:10:30;6.18;;;2.70;;
70157;SDS011;57524;48.312;7.938;2022-07-30T10:12:59;6.07;;;2.90;;
70157;SDS011;57524;48.312;7.938;2022-07-30T10:15:28;5.93;;;2.70;;
70157;SDS011;57524;48.312;7.938;2022-07-30T10:17:56;7.20;;;3.08;;
70157;SDS011;57524;48.312;7.938;2022-07-30T10:20:44;5.77;;;2.67;;
70157;SDS011;57524;48.312;7.938;2022-07-30T10:23:28;5.80;;;2.90;;
70157;SDS011;57524;48.312;7.938;2022-07-30T10:26:15;6.15;;;2.88;;
70157;SDS011;57524;48.312;7.938;2022-07-30T10:29:03;5.15;;;2.97;;
70157;SDS011;57524;48.312;7.938;2022-07-30T10:31:30;5.63;;;3.08;;
70157;SDS011;57524;48.312;7.938;2022-07-30T10:33:56;5.90;;;2.90;;
70157;SDS011;57524;48.312;7.938;2022-07-30T10:36:25;6.85;;;3.20;;
70157;SDS011;57524;48.312;7.938;2022-07-30T10:38:52;5.90;;;2.83;;
70157;SDS011;57524;48.312;7.938;2022-07-30T10:41:23;5.90;;;3.30;;
70157;SDS011;57524;48.312;7.938;2022-07-30T10:44:11;7.35;;;3.30;;
70157;SDS011;57524;48.312;7.938;2022-07-30T10:46:59;6.27;;;2.90;;
70157;SDS011;57524;48.312;7.938;2022-07-30T10:49:27;6.25;;;2.85;;
70157;SDS011;57524;48.312;7.938;2022-07-30T10:51:56;5.13;;;2.80;;
70157;SDS011;57524;48.312;7.938;2022-07-30T10:54:36;5.70;;;2.80;;
70157;SDS011;57524;48.312;7.938;2022-07-30T10:57:05;5.53;;;3.22;;
70157;SDS011;57524;48.312;7.938;2022-07-30T11:02:37;5.30;;;3.00;;
70157;SDS011;57524;48.312;7.938;2022-07-30T11:05:23;6.40;;;2.83;;
70157;SDS011;57524;48.312;7.938;2022-07-30T11:07:53;5.05;;;2.90;;
70157;SDS011;57524;48.312;7.938;2022-07-30T11:10:40;5.00;;;2.80;;
70157;SDS011;57524;48.312;7.938;2022-07-30T11:13:07;6.30;;;3.13;;
70157;SDS011;57524;48.312;7.938;2022-07-30T11:15:53;6.07;;;3.13;;
70157;SDS011;57524;48.312;7.938;2022-07-30T11:18:21;5.88;;;3.00;;
70157;SDS011;57524;48.312;7.938;2022-07-30T11:23:43;5.32;;;3.00;;
70157;SDS011;57524;48.312;7.938;2022-07-30T11:26:11;6.13;;;3.03;;
70157;SDS011;57524;48.312;7.938;2022-07-30T11:29:33;6.25;;;2.80;;
70157;SDS011;57524;48.312;7.938;2022-07-30T11:34:51;5.68;;;2.92;;
70157;SDS011;57524;48.312;7.938;2022-07-30T11:37:18;6.90;;;3.08;;
70157;SDS011;57524;48.312;7.938;2022-07-30T11:42:37;4.40;;;2.53;;
70157;SDS011;57524;48.312;7.938;2022-07-30T11:45:23;5.47;;;3.10;;
70157;SDS011;57524;48.312;7.938;2022-07-30T11:47:55;6.63;;;3.30;;
70157;SDS011;57524;48.312;7.938;2022-07-30T11:50:24;6.25;;;3.08;;
70157;SDS011;57524;48.312;7.938;2022-07-30T11:52:54;5.13;;;2.77;;
70157;SDS011;57524;48.312;7.938;2022-07-30T11:55:23;5.30;;;3.00;;
70157;SDS011;57524;48.312;7.938;2022-07-30T11:57:52;5.60;;;3.20;;
70157;SDS011;57524;48.312;7.938;2022-07-30T12:00:19;5.40;;;3.08;;
70157;SDS011;57524;48.312;7.938;2022-07-30T12:02:46;6.80;;;3.90;;
70157;SDS011;57524;48.312;7.938;2022-07-30T12:05:13;6.13;;;3.40;;
70157;SDS011;57524;48.312;7.938;2022-07-30T12:07:41;6.28;;;3.22;;
70157;SDS011;57524;48.312;7.938;2022-07-30T12:10:11;4.72;;;2.78;;
70157;SDS011;57524;48.312;7.938;2022-07-30T12:12:40;5.18;;;2.70;;
70157;SDS011;57524;48.312;7.938;2022-07-30T12:15:06;5.88;;;3.00;;
70157;SDS011;57524;48.312;7.938;2022-07-30T12:17:40;5.90;;;3.10;;
70157;SDS011;57524;48.312;7.938;2022-07-30T12:20:13;5.57;;;3.00;;
70157;SDS011;57524;48.312;7.938;2022-07-30T12:22:41;5.85;;;2.70;;
70157;SDS011;57524;48.312;7.938;2022-07-30T12:25:08;5.40;;;3.00;;
70157;SDS011;57524;48.312;7.938;2022-07-30T12:27:36;5.00;;;2.90;;
70157;SDS011;57524;48.312;7.938;2022-07-30T12:30:05;4.80;;;2.60;;
70157;SDS011;57524;48.312;7.938;2022-07-30T12:32:33;5.05;;;2.83;;
70157;SDS011;57524;48.312;7.938;2022-07-30T12:35:00;5.43;;;2.72;;
70157;SDS011;57524;48.312;7.938;2022-07-30T12:37:27;5.53;;;2.70;;
70157;SDS011;57524;48.312;7.938;2022-07-30T12:40:03;5.18;;;2.72;;
70157;SDS011;57524;48.312;7.938;2022-07-30T12:42:32;4.73;;;2.60;;
70157;SDS011;57524;48.312;7.938;2022-07-30T12:44:58;5.07;;;2.72;;
70157;SDS011;57524;48.312;7.938;2022-07-30T12:47:27;4.68;;;2.50;;
70157;SDS011;57524;48.312;7.938;2022-07-30T12:49:56;5.07;;;2.30;;
70157;SDS011;57524;48.312;7.938;2022-07-30T12:52:24;4.68;;;2.40;;
70157;SDS011;57524;48.312;7.938;2022-07-30T12:54:56;4.60;;;2.50;;
70157;SDS011;57524;48.312;7.938;2022-07-30T12:57:24;4.93;;;2.78;;
70157;SDS011;57524;48.312;7.938;2022-07-30T12:59:59;4.57;;;2.70;;
70157;SDS011;57524;48.312;7.938;2022-07-30T13:02:31;6.63;;;2.80;;
70157;SDS011;57524;48.312;7.938;2022-07-30T13:04:58;5.43;;;2.83;;
70157;SDS011;57524;48.312;7.938;2022-07-30T13:07:25;5.50;;;2.50;;
70157;SDS011;57524;48.312;7.938;2022-07-30T13:10:05;6.85;;;2.40;;
70157;SDS011;57524;48.312;7.938;2022-07-30T13:12:33;4.90;;;2.40;;
70157;SDS011;57524;48.312;7.938;2022-07-30T13:14:59;6.00;;;2.50;;
70157;SDS011;57524;48.312;7.938;2022-07-30T13:17:26;6.38;;;2.50;;
70157;SDS011;57524;48.312;7.938;2022-07-30T13:19:54;4.70;;;2.50;;
70157;SDS011;57524;48.312;7.938;2022-07-30T13:22:21;4.60;;;2.30;;
70157;SDS011;57524;48.312;7.938;2022-07-30T13:24:47;4.63;;;2.25;;
70157;SDS011;57524;48.312;7.938;2022-07-30T13:27:14;4.13;;;2.45;;
70157;SDS011;57524;48.312;7.938;2022-07-30T13:29:42;4.97;;;2.30;;
70157;SDS011;57524;48.312;7.938;2022-07-30T13:32:08;4.50;;;2.33;;
70157;SDS011;57524;48.312;7.938;2022-07-30T13:34:35;5.90;;;2.60;;
70157;SDS011;57524;48.312;7.938;2022-07-30T13:37:03;5.35;;;2.60;;
70157;SDS011;57524;48.312;7.938;2022-07-30T13:39:30;4.28;;;2.50;;
70157;SDS011;57524;48.312;7.938;2022-07-30T13:41:56;5.20;;;2.40;;
70157;SDS011;57524;48.312;7.938;2022-07-30T13:44:23;5.60;;;2.73;;
70157;SDS011;57524;48.312;7.938;2022-07-30T13:46:50;5.30;;;2.58;;
70157;SDS011;57524;48.312;7.938;2022-07-30T13:49:16;5.35;;;2.60;;
70157;SDS011;57524;48.312;7.938;2022-07-30T13:51:43;6.82;;;2.65;;
70157;SDS011;57524;48.312;7.938;2022-07-30T13:54:11;6.35;;;2.65;;
70157;SDS011;57524;48.312;7.938;2022-07-30T13:56:37;4.40;;;2.50;;
70157;SDS011;57524;48.312;7.938;2022-07-30T13:59:04;4.20;;;2.40;;
70157;SDS011;57524;48.312;7.938;2022-07-30T14:01:31;5.65;;;2.50;;
70157;SDS011;57524;48.312;7.938;2022-07-30T14:03:57;5.10;;;2.45;;
70157;SDS011;57524;48.312;7.938;2022-07-30T14:06:24;5.25;;;2.50;;
70157;SDS011;57524;48.312;7.938;2022-07-30T14:08:50;4.87;;;2.40;;
70157;SDS011;57524;48.312;7.938;2022-07-30T14:11:18;4.95;;;2.30;;
70157;SDS011;57524;48.312;7.938;2022-07-30T14:13:45;5.10;;;2.47;;
70157;SDS011;57524;48.312;7.938;2022-07-30T14:16:12;4.93;;;2.35;;
70157;SDS011;57524;48.312;7.938;2022-07-30T14:18:38;6.50;;;2.47;;
70157;SDS011;57524;48.312;7.938;2022-07-30T14:21:05;4.47;;;2.23;;
70157;SDS011;57524;48.312;7.938;2022-07-30T14:23:31;4.10;;;2.40;;
70157;SDS011;57524;48.312;7.938;2022-07-30T14:25:58;4.85;;;2.30;;
70157;SDS011;57524;48.312;7.938;2022-07-30T14:28:26;4.95;;;2.30;;
70157;SDS011;57524;48.312;7.938;2022-07-30T14:30:53;6.07;;;2.13;;
70157;SDS011;57524;48.312;7.938;2022-07-30T14:33:19;4.73;;;2.03;;
70157;SDS011;57524;48.312;7.938;2022-07-30T14:35:46;4.68;;;2.20;;
70157;SDS011;57524;48.312;7.938;2022-07-30T14:38:13;5.03;;;2.20;;
70157;SDS011;57524;48.312;7.938;2022-07-30T14:40:39;5.65;;;2.10;;
70157;SDS011;57524;48.312;7.938;2022-07-30T14:43:06;4.13;;;1.90;;
70157;SDS011;57524;48.312;7.938;2022-07-30T14:45:34;4.57;;;2.10;;
70157;SDS011;57524;48.312;7.938;2022-07-30T14:48:01;7.18;;;2.08;;
70157;SDS011;57524;48.312;7.938;2022-07-30T14:50:28;4.28;;;1.90;;
70157;SDS011;57524;48.312;7.938;2022-07-30T14:52:54;5.13;;;2.08;;
70157;SDS011;57524;48.312;7.938;2022-07-30T14:55:21;4.47;;;2.20;;
70157;SDS011;57524;48.312;7.938;2022-07-30T14:57:48;4.30;;;2.10;;
70157;SDS011;57524;48.312;7.938;2022-07-30T15:00:14;4.88;;;2.00;;
70157;SDS011;57524;48.312;7.938;2022-07-30T15:02:43;5.35;;;1.95;;
70157;SDS011;57524;48.312;7.938;2022-07-30T15:05:09;4.50;;;2.10;;
70157;SDS011;57524;48.312;7.938;2022-07-30T15:07:36;4.63;;;2.00;;
70157;SDS011;57524;48.312;7.938;2022-07-30T15:10:03;4.30;;;1.90;;
70157;SDS011;57524;48.312;7.938;2022-07-30T15:12:32;6.60;;;2.30;;
70157;SDS011;57524;48.312;7.938;2022-07-30T15:14:58;4.80;;;2.20;;
70157;SDS011;57524;48.312;7.938;2022-07-30T15:17:25;5.22;;;2.20;;
70157;SDS011;57524;48.312;7.938;2022-07-30T15:19:53;4.75;;;2.10;;
70157;SDS011;57524;48.312;7.938;2022-07-30T15:22:20;4.07;;;2.27;;